sensor_id;sensor_type;location;lat;lon;timestamp;P1;durP1;ratioP1;P2;durP2;ratioP2
6117;SDS011;3089;48.202;11.510;2022-08-11T00:02:22;9.63;;;1.73;;
6117;SDS011;3089;48.202;11.510;2022-08-11T00:05:00;4.40;;;2.10;;
6117;SDS011;3089;48.202;11.510;2022-08-11T00:07:32;4.53;;;2.43;;
6117;SDS011;3089;48.202;11.510;2022-08-11T00:10:03;4.73;;;2.10;;
6117;SDS011;3089;48.202;11.510;2022-08-11T00:12:35;4.07;;;1.87;;
6117;SDS011;3089;48.202;11.510;2022-08-11T00:15:05;5.30;;;2.30;;
6117;SDS011;3089;48.202;11.510;2022-08-11T00:17:34;7.73;;;2.83;;
6117;SDS011;3089;48.202;11.510;2022-08-11T00:20:04;5.00;;;1.90;;
6117;SDS011;3089;48.202;11.510;2022-08-11T00:22:42;8.30;;;2.40;;
6117;SDS011;3089;48.202;11.510;2022-08-11T00:25:15;6.90;;;2.30;;
6117;SDS011;3089;48.202;11.510;2022-08-11T00:27:44;5.70;;;2.07;;
6117;SDS011;3089;48.202;11.510;2022-08-11T00:30:14;3.83;;;1.93;;
6117;SDS011;3089;48.202;11.510;2022-08-11T00:32:44;5.53;;;2.13;;
6117;SDS011;3089;48.202;11.510;2022-08-11T00:35:22;6.20;;;2.40;;
6117;SDS011;3089;48.202;11.510;2022-08-11T00:38:12;3.97;;;2.00;;
6117;SDS011;3089;48.202;11.510;2022-08-11T00:40:46;4.13;;;2.30;;
6117;SDS011;3089;48.202;11.510;2022-08-11T00:43:26;5.20;;;2.67;;
6117;SDS011;3089;48.202;11.510;2022-08-11T00:46:13;6.97;;;2.37;;
6117;SDS011;3089;48.202;11.510;2022-08-11T00:48:58;5.47;;;2.10;;
6117;SDS011;3089;48.202;11.510;2022-08-11T00:51:42;4.77;;;2.00;;
6117;SDS011;3089;48.202;11.510;2022-08-11T00:57:36;13.37;;;2.00;;
6117;SDS011;3089;48.202;11.510;2022-08-11T01:00:31;4.13;;;2.10;;
6117;SDS011;3089;48.202;11.510;2022-08-11T01:03:17;3.80;;;1.87;;
6117;SDS011;3089;48.202;11.510;2022-08-11T01:06:14;8.27;;;2.37;;
6117;SDS011;3089;48.202;11.510;2022-08-11T01:09:08;6.60;;;2.63;;
6117;SDS011;3089;48.202;11.510;2022-08-11T01:21:52;4.10;;;2.13;;
6117;SDS011;3089;48.202;11.510;2022-08-11T01:24:58;4.33;;;2.10;;
6117;SDS011;3089;48.202;11.510;2022-08-11T01:31:26;5.93;;;2.13;;
6117;SDS011;3089;48.202;11.510;2022-08-11T01:34:48;7.07;;;2.50;;
6117;SDS011;3089;48.202;11.510;2022-08-11T01:37:57;6.20;;;2.80;;
6117;SDS011;3089;48.202;11.510;2022-08-11T01:44:17;5.67;;;2.07;;
6117;SDS011;3089;48.202;11.510;2022-08-11T01:47:22;3.67;;;2.10;;
6117;SDS011;3089;48.202;11.510;2022-08-11T01:53:33;5.20;;;2.27;;
6117;SDS011;3089;48.202;11.510;2022-08-11T01:56:18;4.73;;;2.30;;
6117;SDS011;3089;48.202;11.510;2022-08-11T01:59:04;4.63;;;2.23;;
6117;SDS011;3089;48.202;11.510;2022-08-11T02:01:40;3.77;;;1.87;;
6117;SDS011;3089;48.202;11.510;2022-08-11T02:04:23;4.30;;;2.30;;
6117;SDS011;3089;48.202;11.510;2022-08-11T02:07:00;4.57;;;2.00;;
6117;SDS011;3089;48.202;11.510;2022-08-11T02:09:42;4.53;;;2.43;;
6117;SDS011;3089;48.202;11.510;2022-08-11T02:12:21;4.57;;;2.10;;
6117;SDS011;3089;48.202;11.510;2022-08-11T02:15:19;5.70;;;2.40;;
6117;SDS011;3089;48.202;11.510;2022-08-11T02:17:57;11.50;;;2.87;;
6117;SDS011;3089;48.202;11.510;2022-08-11T02:20:31;5.63;;;2.60;;
6117;SDS011;3089;48.202;11.510;2022-08-11T02:23:22;4.90;;;2.30;;
6117;SDS011;3089;48.202;11.510;2022-08-11T02:26:30;4.40;;;2.30;;
6117;SDS011;3089;48.202;11.510;2022-08-11T02:29:09;4.30;;;2.33;;
6117;SDS011;3089;48.202;11.510;2022-08-11T02:31:45;4.40;;;2.40;;
6117;SDS011;3089;48.202;11.510;2022-08-11T02:34:58;4.60;;;2.10;;
6117;SDS011;3089;48.202;11.510;2022-08-11T02:37:37;5.73;;;2.00;;
6117;SDS011;3089;48.202;11.510;2022-08-11T02:40:24;5.80;;;2.60;;
6117;SDS011;3089;48.202;11.510;2022-08-11T02:43:06;4.40;;;2.23;;
6117;SDS011;3089;48.202;11.510;2022-08-11T02:45:49;5.43;;;2.23;;
6117;SDS011;3089;48.202;11.510;2022-08-11T02:48:26;7.50;;;2.83;;
6117;SDS011;3089;48.202;11.510;2022-08-11T02:51:18;5.53;;;2.17;;
6117;SDS011;3089;48.202;11.510;2022-08-11T02:53:53;4.57;;;2.37;;
6117;SDS011;3089;48.202;11.510;2022-08-11T02:56:33;7.77;;;2.30;;
6117;SDS011;3089;48.202;11.510;2022-08-11T02:59:15;6.80;;;2.50;;
6117;SDS011;3089;48.202;11.510;2022-08-11T03:02:13;6.13;;;2.40;;
6117;SDS011;3089;48.202;11.510;2022-08-11T03:04:59;5.43;;;2.20;;
6117;SDS011;3089;48.202;11.510;2022-08-11T03:07:33;5.37;;;2.53;;
6117;SDS011;3089;48.202;11.510;2022-08-11T03:10:09;5.53;;;2.43;;
6117;SDS011;3089;48.202;11.510;2022-08-11T03:12:44;15.27;;;2.50;;
6117;SDS011;3089;48.202;11.510;2022-08-11T03:15:40;9.13;;;2.90;;
6117;SDS011;3089;48.202;11.510;2022-08-11T03:18:32;5.40;;;2.43;;
6117;SDS011;3089;48.202;11.510;2022-08-11T03:21:09;4.10;;;2.60;;
6117;SDS011;3089;48.202;11.510;2022-08-11T03:23:46;7.20;;;2.60;;
6117;SDS011;3089;48.202;11.510;2022-08-11T03:26:22;4.37;;;2.40;;
6117;SDS011;3089;48.202;11.510;2022-08-11T03:28:58;5.33;;;2.37;;
6117;SDS011;3089;48.202;11.510;2022-08-11T03:31:35;5.00;;;2.43;;
6117;SDS011;3089;48.202;11.510;2022-08-11T03:34:12;5.70;;;2.70;;
6117;SDS011;3089;48.202;11.510;2022-08-11T03:39:45;4.93;;;2.83;;
6117;SDS011;3089;48.202;11.510;2022-08-11T03:42:25;7.60;;;3.00;;
6117;SDS011;3089;48.202;11.510;2022-08-11T03:45:02;5.63;;;2.37;;
6117;SDS011;3089;48.202;11.510;2022-08-11T03:47:43;6.03;;;2.67;;
6117;SDS011;3089;48.202;11.510;2022-08-11T03:50:31;4.10;;;2.47;;
6117;SDS011;3089;48.202;11.510;2022-08-11T03:53:12;6.83;;;2.50;;
6117;SDS011;3089;48.202;11.510;2022-08-11T03:55:55;7.30;;;2.80;;
6117;SDS011;3089;48.202;11.510;2022-08-11T03:58:48;5.33;;;2.40;;
6117;SDS011;3089;48.202;11.510;2022-08-11T04:01:49;5.70;;;2.50;;
6117;SDS011;3089;48.202;11.510;2022-08-11T04:04:49;4.53;;;2.30;;
6117;SDS011;3089;48.202;11.510;2022-08-11T04:10:51;6.97;;;2.53;;
6117;SDS011;3089;48.202;11.510;2022-08-11T04:20:21;6.63;;;2.43;;
6117;SDS011;3089;48.202;11.510;2022-08-11T04:23:23;6.93;;;2.80;;
6117;SDS011;3089;48.202;11.510;2022-08-11T04:26:54;5.17;;;2.97;;
6117;SDS011;3089;48.202;11.510;2022-08-11T04:29:44;4.87;;;2.67;;
6117;SDS011;3089;48.202;11.510;2022-08-11T04:32:35;5.37;;;3.07;;
6117;SDS011;3089;48.202;11.510;2022-08-11T04:35:33;5.80;;;2.50;;
6117;SDS011;3089;48.202;11.510;2022-08-11T04:41:28;4.97;;;2.60;;
6117;SDS011;3089;48.202;11.510;2022-08-11T04:48:13;4.30;;;2.23;;
6117;SDS011;3089;48.202;11.510;2022-08-11T04:51:21;10.47;;;3.80;;
6117;SDS011;3089;48.202;11.510;2022-08-11T04:54:36;4.77;;;2.87;;
6117;SDS011;3089;48.202;11.510;2022-08-11T04:57:34;8.73;;;2.67;;
6117;SDS011;3089;48.202;11.510;2022-08-11T05:00:35;6.57;;;3.10;;
6117;SDS011;3089;48.202;11.510;2022-08-11T05:03:37;6.30;;;3.10;;
6117;SDS011;3089;48.202;11.510;2022-08-11T05:12:45;4.60;;;2.43;;
6117;SDS011;3089;48.202;11.510;2022-08-11T05:15:19;5.23;;;2.90;;
6117;SDS011;3089;48.202;11.510;2022-08-11T05:18:15;5.30;;;3.00;;
6117;SDS011;3089;48.202;11.510;2022-08-11T05:21:05;6.00;;;3.20;;
6117;SDS011;3089;48.202;11.510;2022-08-11T05:23:54;4.90;;;3.07;;
6117;SDS011;3089;48.202;11.510;2022-08-11T05:26:44;9.43;;;2.80;;
6117;SDS011;3089;48.202;11.510;2022-08-11T05:29:39;6.80;;;2.80;;
6117;SDS011;3089;48.202;11.510;2022-08-11T05:32:29;4.87;;;3.00;;
6117;SDS011;3089;48.202;11.510;2022-08-11T05:35:27;4.80;;;2.60;;
6117;SDS011;3089;48.202;11.510;2022-08-11T05:38:22;9.17;;;3.00;;
6117;SDS011;3089;48.202;11.510;2022-08-11T05:41:10;4.70;;;2.60;;
6117;SDS011;3089;48.202;11.510;2022-08-11T05:43:58;6.13;;;3.23;;
6117;SDS011;3089;48.202;11.510;2022-08-11T05:46:48;5.03;;;2.53;;
6117;SDS011;3089;48.202;11.510;2022-08-11T05:49:34;4.83;;;2.70;;
6117;SDS011;3089;48.202;11.510;2022-08-11T05:52:23;4.60;;;2.33;;
6117;SDS011;3089;48.202;11.510;2022-08-11T05:55:14;5.37;;;3.00;;
6117;SDS011;3089;48.202;11.510;2022-08-11T05:58:01;7.47;;;2.80;;
6117;SDS011;3089;48.202;11.510;2022-08-11T06:00:37;5.93;;;3.07;;
6117;SDS011;3089;48.202;11.510;2022-08-11T06:03:08;7.00;;;2.80;;
6117;SDS011;3089;48.202;11.510;2022-08-11T06:05:37;8.80;;;2.90;;
6117;SDS011;3089;48.202;11.510;2022-08-11T06:08:09;7.27;;;2.60;;
6117;SDS011;3089;48.202;11.510;2022-08-11T06:10:39;5.57;;;2.93;;
6117;SDS011;3089;48.202;11.510;2022-08-11T06:13:09;5.30;;;2.70;;
6117;SDS011;3089;48.202;11.510;2022-08-11T06:15:46;6.87;;;2.20;;
6117;SDS011;3089;48.202;11.510;2022-08-11T06:18:15;6.67;;;2.90;;
6117;SDS011;3089;48.202;11.510;2022-08-11T06:20:47;7.10;;;3.27;;
6117;SDS011;3089;48.202;11.510;2022-08-11T06:23:17;6.10;;;2.97;;
6117;SDS011;3089;48.202;11.510;2022-08-11T06:25:49;5.50;;;3.00;;
6117;SDS011;3089;48.202;11.510;2022-08-11T06:28:27;8.77;;;3.30;;
6117;SDS011;3089;48.202;11.510;2022-08-11T06:30:58;7.83;;;2.63;;
6117;SDS011;3089;48.202;11.510;2022-08-11T06:33:30;8.93;;;2.70;;
6117;SDS011;3089;48.202;11.510;2022-08-11T06:36:05;6.17;;;2.87;;
6117;SDS011;3089;48.202;11.510;2022-08-11T06:38:45;5.97;;;2.90;;
6117;SDS011;3089;48.202;11.510;2022-08-11T06:41:23;6.17;;;3.10;;
6117;SDS011;3089;48.202;11.510;2022-08-11T06:44:14;33.57;;;3.47;;
6117;SDS011;3089;48.202;11.510;2022-08-11T06:46:50;5.77;;;2.90;;
6117;SDS011;3089;48.202;11.510;2022-08-11T06:49:21;7.33;;;2.80;;
6117;SDS011;3089;48.202;11.510;2022-08-11T06:52:17;5.83;;;2.80;;
6117;SDS011;3089;48.202;11.510;2022-08-11T06:55:06;4.60;;;2.80;;
6117;SDS011;3089;48.202;11.510;2022-08-11T06:57:57;5.23;;;2.70;;
6117;SDS011;3089;48.202;11.510;2022-08-11T07:00:44;5.17;;;2.90;;
6117;SDS011;3089;48.202;11.510;2022-08-11T07:03:16;10.20;;;3.10;;
6117;SDS011;3089;48.202;11.510;2022-08-11T07:05:46;7.40;;;2.80;;
6117;SDS011;3089;48.202;11.510;2022-08-11T07:11:44;5.10;;;2.80;;
6117;SDS011;3089;48.202;11.510;2022-08-11T07:14:46;4.63;;;2.43;;
6117;SDS011;3089;48.202;11.510;2022-08-11T07:17:31;7.90;;;3.10;;
6117;SDS011;3089;48.202;11.510;2022-08-11T07:20:06;5.90;;;2.80;;
6117;SDS011;3089;48.202;11.510;2022-08-11T07:22:53;5.60;;;2.93;;
6117;SDS011;3089;48.202;11.510;2022-08-11T07:25:41;6.97;;;2.90;;
6117;SDS011;3089;48.202;11.510;2022-08-11T07:28:28;7.43;;;2.33;;
6117;SDS011;3089;48.202;11.510;2022-08-11T07:31:16;7.10;;;2.80;;
6117;SDS011;3089;48.202;11.510;2022-08-11T07:33:51;9.13;;;2.90;;
6117;SDS011;3089;48.202;11.510;2022-08-11T07:36:35;4.03;;;2.10;;
6117;SDS011;3089;48.202;11.510;2022-08-11T07:39:07;5.33;;;2.67;;
6117;SDS011;3089;48.202;11.510;2022-08-11T07:41:41;6.90;;;2.77;;
6117;SDS011;3089;48.202;11.510;2022-08-11T07:44:09;6.00;;;2.60;;
6117;SDS011;3089;48.202;11.510;2022-08-11T07:46:38;8.10;;;2.97;;
6117;SDS011;3089;48.202;11.510;2022-08-11T07:49:27;4.50;;;2.30;;
6117;SDS011;3089;48.202;11.510;2022-08-11T07:52:16;5.33;;;2.23;;
6117;SDS011;3089;48.202;11.510;2022-08-11T07:54:55;4.50;;;2.50;;
6117;SDS011;3089;48.202;11.510;2022-08-11T07:57:26;6.00;;;2.40;;
6117;SDS011;3089;48.202;11.510;2022-08-11T08:00:34;8.70;;;2.80;;
6117;SDS011;3089;48.202;11.510;2022-08-11T08:03:26;9.00;;;2.63;;
6117;SDS011;3089;48.202;11.510;2022-08-11T08:06:20;6.70;;;2.47;;
6117;SDS011;3089;48.202;11.510;2022-08-11T08:09:07;5.37;;;2.73;;
6117;SDS011;3089;48.202;11.510;2022-08-11T08:11:54;9.80;;;3.03;;
6117;SDS011;3089;48.202;11.510;2022-08-11T08:14:40;7.03;;;2.80;;
6117;SDS011;3089;48.202;11.510;2022-08-11T08:17:26;5.10;;;2.37;;
6117;SDS011;3089;48.202;11.510;2022-08-11T08:20:33;4.40;;;2.40;;
6117;SDS011;3089;48.202;11.510;2022-08-11T08:23:03;6.00;;;2.43;;
6117;SDS011;3089;48.202;11.510;2022-08-11T08:25:34;6.00;;;2.40;;
6117;SDS011;3089;48.202;11.510;2022-08-11T08:28:06;5.87;;;2.97;;
6117;SDS011;3089;48.202;11.510;2022-08-11T08:30:36;4.60;;;2.30;;
6117;SDS011;3089;48.202;11.510;2022-08-11T08:33:12;4.77;;;2.70;;
6117;SDS011;3089;48.202;11.510;2022-08-11T08:35:43;11.90;;;2.60;;
6117;SDS011;3089;48.202;11.510;2022-08-11T08:38:21;6.03;;;2.60;;
6117;SDS011;3089;48.202;11.510;2022-08-11T08:40:51;5.43;;;2.27;;
6117;SDS011;3089;48.202;11.510;2022-08-11T08:43:21;5.30;;;2.27;;
6117;SDS011;3089;48.202;11.510;2022-08-11T08:45:52;3.83;;;1.80;;
6117;SDS011;3089;48.202;11.510;2022-08-11T08:48:22;5.30;;;2.47;;
6117;SDS011;3089;48.202;11.510;2022-08-11T08:50:52;6.27;;;2.80;;
6117;SDS011;3089;48.202;11.510;2022-08-11T08:53:44;5.33;;;2.57;;
6117;SDS011;3089;48.202;11.510;2022-08-11T08:56:25;5.33;;;2.57;;
6117;SDS011;3089;48.202;11.510;2022-08-11T08:58:55;9.43;;;2.77;;
6117;SDS011;3089;48.202;11.510;2022-08-11T09:01:25;5.13;;;2.57;;
6117;SDS011;3089;48.202;11.510;2022-08-11T09:03:56;4.77;;;2.63;;
6117;SDS011;3089;48.202;11.510;2022-08-11T09:06:36;9.60;;;2.40;;
6117;SDS011;3089;48.202;11.510;2022-08-11T09:09:06;5.70;;;2.23;;
6117;SDS011;3089;48.202;11.510;2022-08-11T09:11:37;5.63;;;2.57;;
6117;SDS011;3089;48.202;11.510;2022-08-11T09:14:20;6.97;;;2.63;;
6117;SDS011;3089;48.202;11.510;2022-08-11T09:16:50;4.20;;;2.63;;
6117;SDS011;3089;48.202;11.510;2022-08-11T09:19:20;5.00;;;2.20;;
6117;SDS011;3089;48.202;11.510;2022-08-11T09:21:50;4.10;;;2.40;;
6117;SDS011;3089;48.202;11.510;2022-08-11T09:24:38;5.10;;;2.53;;
6117;SDS011;3089;48.202;11.510;2022-08-11T09:27:25;7.07;;;2.30;;
6117;SDS011;3089;48.202;11.510;2022-08-11T09:29:54;6.07;;;2.40;;
6117;SDS011;3089;48.202;11.510;2022-08-11T09:32:22;5.03;;;2.70;;
6117;SDS011;3089;48.202;11.510;2022-08-11T09:34:50;5.47;;;2.27;;
6117;SDS011;3089;48.202;11.510;2022-08-11T09:37:19;9.97;;;2.50;;
6117;SDS011;3089;48.202;11.510;2022-08-11T09:40:21;6.20;;;3.07;;
6117;SDS011;3089;48.202;11.510;2022-08-11T09:42:58;8.03;;;2.43;;
6117;SDS011;3089;48.202;11.510;2022-08-11T09:45:46;7.70;;;2.60;;
6117;SDS011;3089;48.202;11.510;2022-08-11T09:48:17;5.50;;;2.10;;
6117;SDS011;3089;48.202;11.510;2022-08-11T09:50:46;4.87;;;1.97;;
6117;SDS011;3089;48.202;11.510;2022-08-11T09:53:16;4.73;;;2.00;;
6117;SDS011;3089;48.202;11.510;2022-08-11T09:56:06;6.97;;;2.03;;
6117;SDS011;3089;48.202;11.510;2022-08-11T09:58:56;5.57;;;1.90;;
6117;SDS011;3089;48.202;11.510;2022-08-11T10:01:25;5.50;;;2.20;;
6117;SDS011;3089;48.202;11.510;2022-08-11T10:03:58;5.90;;;3.00;;
6117;SDS011;3089;48.202;11.510;2022-08-11T10:06:29;5.83;;;2.00;;
6117;SDS011;3089;48.202;11.510;2022-08-11T10:09:20;3.50;;;1.77;;
6117;SDS011;3089;48.202;11.510;2022-08-11T10:11:52;6.37;;;1.80;;
6117;SDS011;3089;48.202;11.510;2022-08-11T10:14:25;4.17;;;1.93;;
6117;SDS011;3089;48.202;11.510;2022-08-11T10:17:15;4.97;;;1.87;;
6117;SDS011;3089;48.202;11.510;2022-08-11T10:19:46;5.77;;;2.30;;
6117;SDS011;3089;48.202;11.510;2022-08-11T10:22:31;6.13;;;2.13;;
6117;SDS011;3089;48.202;11.510;2022-08-11T10:25:17;9.50;;;1.87;;
6117;SDS011;3089;48.202;11.510;2022-08-11T10:28:04;3.40;;;1.83;;
6117;SDS011;3089;48.202;11.510;2022-08-11T10:30:56;6.07;;;2.20;;
6117;SDS011;3089;48.202;11.510;2022-08-11T10:33:42;4.23;;;1.80;;
6117;SDS011;3089;48.202;11.510;2022-08-11T10:36:27;8.50;;;1.90;;
6117;SDS011;3089;48.202;11.510;2022-08-11T10:38:56;5.70;;;1.80;;
6117;SDS011;3089;48.202;11.510;2022-08-11T10:41:25;4.53;;;1.77;;
6117;SDS011;3089;48.202;11.510;2022-08-11T10:44:35;4.33;;;1.90;;
6117;SDS011;3089;48.202;11.510;2022-08-11T10:47:09;3.67;;;1.90;;
6117;SDS011;3089;48.202;11.510;2022-08-11T10:49:56;5.17;;;1.70;;
6117;SDS011;3089;48.202;11.510;2022-08-11T10:52:43;3.73;;;1.80;;
6117;SDS011;3089;48.202;11.510;2022-08-11T10:55:30;5.97;;;1.67;;
6117;SDS011;3089;48.202;11.510;2022-08-11T10:58:16;3.90;;;2.00;;
6117;SDS011;3089;48.202;11.510;2022-08-11T11:01:02;7.10;;;1.93;;
6117;SDS011;3089;48.202;11.510;2022-08-11T11:03:33;6.23;;;1.90;;
6117;SDS011;3089;48.202;11.510;2022-08-11T11:06:05;4.73;;;1.93;;
6117;SDS011;3089;48.202;11.510;2022-08-11T11:08:56;4.07;;;1.70;;
6117;SDS011;3089;48.202;11.510;2022-08-11T11:11:32;3.53;;;2.00;;
6117;SDS011;3089;48.202;11.510;2022-08-11T11:14:21;3.57;;;1.93;;
6117;SDS011;3089;48.202;11.510;2022-08-11T11:17:15;4.47;;;1.77;;
6117;SDS011;3089;48.202;11.510;2022-08-11T11:20:11;4.50;;;1.80;;
6117;SDS011;3089;48.202;11.510;2022-08-11T11:23:04;9.90;;;1.60;;
6117;SDS011;3089;48.202;11.510;2022-08-11T11:25:35;4.37;;;1.87;;
6117;SDS011;3089;48.202;11.510;2022-08-11T11:28:45;3.70;;;1.80;;
6117;SDS011;3089;48.202;11.510;2022-08-11T11:31:32;6.63;;;1.70;;
6117;SDS011;3089;48.202;11.510;2022-08-11T11:34:14;4.17;;;1.70;;
6117;SDS011;3089;48.202;11.510;2022-08-11T11:36:52;4.40;;;1.80;;
6117;SDS011;3089;48.202;11.510;2022-08-11T11:39:22;4.20;;;1.80;;
6117;SDS011;3089;48.202;11.510;2022-08-11T11:41:53;3.50;;;1.93;;
6117;SDS011;3089;48.202;11.510;2022-08-11T11:44:23;4.37;;;2.00;;
6117;SDS011;3089;48.202;11.510;2022-08-11T11:46:52;4.80;;;1.80;;
6117;SDS011;3089;48.202;11.510;2022-08-11T11:49:22;4.17;;;1.60;;
6117;SDS011;3089;48.202;11.510;2022-08-11T11:51:55;3.70;;;1.83;;
6117;SDS011;3089;48.202;11.510;2022-08-11T11:54:24;6.40;;;1.80;;
6117;SDS011;3089;48.202;11.510;2022-08-11T11:56:54;4.60;;;1.97;;
6117;SDS011;3089;48.202;11.510;2022-08-11T11:59:23;3.17;;;1.50;;
6117;SDS011;3089;48.202;11.510;2022-08-11T12:02:12;4.63;;;1.90;;
6117;SDS011;3089;48.202;11.510;2022-08-11T12:04:43;4.67;;;2.17;;
6117;SDS011;3089;48.202;11.510;2022-08-11T12:07:15;5.63;;;1.50;;
6117;SDS011;3089;48.202;11.510;2022-08-11T12:10:00;3.97;;;1.53;;
6117;SDS011;3089;48.202;11.510;2022-08-11T12:12:29;3.67;;;1.70;;
6117;SDS011;3089;48.202;11.510;2022-08-11T12:15:15;4.87;;;1.90;;
6117;SDS011;3089;48.202;11.510;2022-08-11T12:18:05;4.30;;;1.63;;
6117;SDS011;3089;48.202;11.510;2022-08-11T12:20:33;6.83;;;2.03;;
6117;SDS011;3089;48.202;11.510;2022-08-11T12:23:03;4.63;;;1.73;;
6117;SDS011;3089;48.202;11.510;2022-08-11T12:25:49;3.90;;;1.90;;
6117;SDS011;3089;48.202;11.510;2022-08-11T12:28:52;4.83;;;1.63;;
6117;SDS011;3089;48.202;11.510;2022-08-11T12:31:23;3.97;;;1.77;;
6117;SDS011;3089;48.202;11.510;2022-08-11T12:33:51;3.60;;;1.70;;
6117;SDS011;3089;48.202;11.510;2022-08-11T12:36:21;4.50;;;1.67;;
6117;SDS011;3089;48.202;11.510;2022-08-11T12:38:50;4.50;;;1.90;;
6117;SDS011;3089;48.202;11.510;2022-08-11T12:41:21;3.63;;;1.83;;
6117;SDS011;3089;48.202;11.510;2022-08-11T12:44:07;3.87;;;1.77;;
6117;SDS011;3089;48.202;11.510;2022-08-11T12:46:54;6.33;;;2.03;;
6117;SDS011;3089;48.202;11.510;2022-08-11T12:49:25;6.53;;;2.17;;
6117;SDS011;3089;48.202;11.510;2022-08-11T12:52:16;5.73;;;1.60;;
6117;SDS011;3089;48.202;11.510;2022-08-11T12:54:52;4.20;;;1.50;;
6117;SDS011;3089;48.202;11.510;2022-08-11T12:57:26;5.23;;;1.87;;
6117;SDS011;3089;48.202;11.510;2022-08-11T13:00:16;3.53;;;1.50;;
6117;SDS011;3089;48.202;11.510;2022-08-11T13:03:03;5.13;;;1.90;;
6117;SDS011;3089;48.202;11.510;2022-08-11T13:05:51;4.20;;;1.43;;
6117;SDS011;3089;48.202;11.510;2022-08-11T13:08:21;3.20;;;1.60;;
6117;SDS011;3089;48.202;11.510;2022-08-11T13:10:52;4.10;;;1.60;;
6117;SDS011;3089;48.202;11.510;2022-08-11T13:13:40;3.93;;;2.10;;
6117;SDS011;3089;48.202;11.510;2022-08-11T13:16:22;6.87;;;1.70;;
6117;SDS011;3089;48.202;11.510;2022-08-11T13:18:52;3.73;;;1.50;;
6117;SDS011;3089;48.202;11.510;2022-08-11T13:21:24;7.00;;;1.80;;
6117;SDS011;3089;48.202;11.510;2022-08-11T13:23:54;3.50;;;1.63;;
6117;SDS011;3089;48.202;11.510;2022-08-11T13:26:28;4.57;;;1.70;;
6117;SDS011;3089;48.202;11.510;2022-08-11T13:29:13;3.70;;;1.50;;
6117;SDS011;3089;48.202;11.510;2022-08-11T13:31:43;4.80;;;1.87;;
6117;SDS011;3089;48.202;11.510;2022-08-11T13:34:12;3.60;;;1.50;;
6117;SDS011;3089;48.202;11.510;2022-08-11T13:36:41;3.90;;;1.40;;
6117;SDS011;3089;48.202;11.510;2022-08-11T13:39:13;4.73;;;2.03;;
6117;SDS011;3089;48.202;11.510;2022-08-11T13:41:48;3.33;;;1.60;;
6117;SDS011;3089;48.202;11.510;2022-08-11T13:44:21;4.60;;;1.60;;
6117;SDS011;3089;48.202;11.510;2022-08-11T13:46:53;5.20;;;2.10;;
6117;SDS011;3089;48.202;11.510;2022-08-11T13:49:24;6.50;;;2.10;;
6117;SDS011;3089;48.202;11.510;2022-08-11T13:51:54;5.60;;;1.37;;
6117;SDS011;3089;48.202;11.510;2022-08-11T13:54:23;4.67;;;1.63;;
6117;SDS011;3089;48.202;11.510;2022-08-11T13:56:55;4.57;;;1.80;;
6117;SDS011;3089;48.202;11.510;2022-08-11T13:59:26;5.00;;;1.80;;
6117;SDS011;3089;48.202;11.510;2022-08-11T14:01:57;4.53;;;1.50;;
6117;SDS011;3089;48.202;11.510;2022-08-11T14:04:50;3.80;;;1.50;;
6117;SDS011;3089;48.202;11.510;2022-08-11T14:07:22;4.00;;;1.70;;
6117;SDS011;3089;48.202;11.510;2022-08-11T14:09:52;4.23;;;1.53;;
6117;SDS011;3089;48.202;11.510;2022-08-11T14:12:26;5.33;;;1.50;;
6117;SDS011;3089;48.202;11.510;2022-08-11T14:15:15;4.40;;;1.77;;
6117;SDS011;3089;48.202;11.510;2022-08-11T14:17:47;4.30;;;1.43;;
6117;SDS011;3089;48.202;11.510;2022-08-11T14:20:21;3.40;;;1.80;;
6117;SDS011;3089;48.202;11.510;2022-08-11T14:23:05;3.60;;;1.47;;
6117;SDS011;3089;48.202;11.510;2022-08-11T14:25:36;3.60;;;1.67;;
6117;SDS011;3089;48.202;11.510;2022-08-11T14:28:30;4.20;;;1.70;;
6117;SDS011;3089;48.202;11.510;2022-08-11T14:31:09;5.87;;;1.80;;
6117;SDS011;3089;48.202;11.510;2022-08-11T14:33:39;4.90;;;1.53;;
6117;SDS011;3089;48.202;11.510;2022-08-11T14:36:27;3.97;;;1.70;;
6117;SDS011;3089;48.202;11.510;2022-08-11T14:39:00;5.77;;;1.40;;
6117;SDS011;3089;48.202;11.510;2022-08-11T14:41:30;7.10;;;2.00;;
6117;SDS011;3089;48.202;11.510;2022-08-11T14:44:38;4.37;;;1.73;;
6117;SDS011;3089;48.202;11.510;2022-08-11T14:47:27;3.80;;;1.63;;
6117;SDS011;3089;48.202;11.510;2022-08-11T14:49:57;3.03;;;1.30;;
6117;SDS011;3089;48.202;11.510;2022-08-11T14:52:38;4.27;;;1.60;;
6117;SDS011;3089;48.202;11.510;2022-08-11T14:55:09;3.20;;;1.57;;
6117;SDS011;3089;48.202;11.510;2022-08-11T14:58:00;2.93;;;1.37;;
6117;SDS011;3089;48.202;11.510;2022-08-11T15:00:31;4.03;;;1.90;;
6117;SDS011;3089;48.202;11.510;2022-08-11T15:03:02;7.83;;;2.20;;
6117;SDS011;3089;48.202;11.510;2022-08-11T15:05:38;4.70;;;1.70;;
6117;SDS011;3089;48.202;11.510;2022-08-11T15:08:22;6.00;;;1.60;;
6117;SDS011;3089;48.202;11.510;2022-08-11T15:11:07;5.37;;;1.40;;
6117;SDS011;3089;48.202;11.510;2022-08-11T15:13:57;3.30;;;1.70;;
6117;SDS011;3089;48.202;11.510;2022-08-11T15:16:27;5.03;;;1.70;;
6117;SDS011;3089;48.202;11.510;2022-08-11T15:19:14;3.50;;;1.70;;
6117;SDS011;3089;48.202;11.510;2022-08-11T15:21:44;6.23;;;1.60;;
6117;SDS011;3089;48.202;11.510;2022-08-11T15:24:30;3.90;;;1.50;;
6117;SDS011;3089;48.202;11.510;2022-08-11T15:27:00;4.97;;;1.50;;
6117;SDS011;3089;48.202;11.510;2022-08-11T15:29:48;2.90;;;1.30;;
6117;SDS011;3089;48.202;11.510;2022-08-11T15:32:53;3.47;;;1.57;;
6117;SDS011;3089;48.202;11.510;2022-08-11T15:35:40;3.13;;;1.30;;
6117;SDS011;3089;48.202;11.510;2022-08-11T15:38:26;3.90;;;1.60;;
6117;SDS011;3089;48.202;11.510;2022-08-11T15:41:01;2.87;;;1.40;;
6117;SDS011;3089;48.202;11.510;2022-08-11T15:43:50;3.20;;;1.50;;
6117;SDS011;3089;48.202;11.510;2022-08-11T15:46:39;4.20;;;1.43;;
6117;SDS011;3089;48.202;11.510;2022-08-11T15:49:12;8.20;;;1.80;;
6117;SDS011;3089;48.202;11.510;2022-08-11T15:51:48;3.60;;;1.60;;
6117;SDS011;3089;48.202;11.510;2022-08-11T15:54:30;3.50;;;1.63;;
6117;SDS011;3089;48.202;11.510;2022-08-11T15:57:01;4.27;;;1.70;;
6117;SDS011;3089;48.202;11.510;2022-08-11T15:59:32;2.90;;;1.30;;
6117;SDS011;3089;48.202;11.510;2022-08-11T16:02:20;5.07;;;1.60;;
6117;SDS011;3089;48.202;11.510;2022-08-11T16:05:10;4.67;;;1.50;;
6117;SDS011;3089;48.202;11.510;2022-08-11T16:08:03;4.20;;;1.43;;
6117;SDS011;3089;48.202;11.510;2022-08-11T16:10:38;5.93;;;1.83;;
6117;SDS011;3089;48.202;11.510;2022-08-11T16:13:09;5.43;;;1.47;;
6117;SDS011;3089;48.202;11.510;2022-08-11T16:15:56;6.30;;;1.30;;
6117;SDS011;3089;48.202;11.510;2022-08-11T16:18:44;4.07;;;1.50;;
6117;SDS011;3089;48.202;11.510;2022-08-11T16:21:19;3.60;;;1.37;;
6117;SDS011;3089;48.202;11.510;2022-08-11T16:24:00;4.30;;;1.80;;
6117;SDS011;3089;48.202;11.510;2022-08-11T16:26:30;3.50;;;1.60;;
6117;SDS011;3089;48.202;11.510;2022-08-11T16:29:21;2.80;;;1.30;;
6117;SDS011;3089;48.202;11.510;2022-08-11T16:31:51;3.53;;;1.50;;
6117;SDS011;3089;48.202;11.510;2022-08-11T16:34:38;9.20;;;1.40;;
6117;SDS011;3089;48.202;11.510;2022-08-11T16:37:27;5.73;;;1.57;;
6117;SDS011;3089;48.202;11.510;2022-08-11T16:40:14;5.00;;;2.00;;
6117;SDS011;3089;48.202;11.510;2022-08-11T16:42:43;3.87;;;1.90;;
6117;SDS011;3089;48.202;11.510;2022-08-11T16:45:36;4.60;;;1.70;;
6117;SDS011;3089;48.202;11.510;2022-08-11T16:48:23;3.90;;;1.63;;
6117;SDS011;3089;48.202;11.510;2022-08-11T16:51:02;5.80;;;1.50;;
6117;SDS011;3089;48.202;11.510;2022-08-11T16:53:32;7.47;;;1.77;;
6117;SDS011;3089;48.202;11.510;2022-08-11T16:56:21;3.20;;;1.30;;
6117;SDS011;3089;48.202;11.510;2022-08-11T16:58:53;3.60;;;1.40;;
6117;SDS011;3089;48.202;11.510;2022-08-11T17:01:41;3.33;;;1.73;;
6117;SDS011;3089;48.202;11.510;2022-08-11T17:04:15;7.00;;;1.40;;
6117;SDS011;3089;48.202;11.510;2022-08-11T17:07:05;4.47;;;1.50;;
6117;SDS011;3089;48.202;11.510;2022-08-11T17:10:12;2.83;;;1.33;;
6117;SDS011;3089;48.202;11.510;2022-08-11T17:13:20;3.50;;;1.30;;
6117;SDS011;3089;48.202;11.510;2022-08-11T17:15:52;6.53;;;1.63;;
6117;SDS011;3089;48.202;11.510;2022-08-11T17:18:41;3.00;;;1.30;;
6117;SDS011;3089;48.202;11.510;2022-08-11T17:21:14;6.60;;;1.40;;